Time;durP1;ratioP1;P1;durP2;ratioP2;P2;SDS_P1;SDS_P2;PMS_P1;PMS_P2;Temp;Humidity;BMP_temperature;BMP_pressure;BME280_temperature;BME280_humidity;BME280_pressure;Samples;Min_cycle;Max_cycle;Signal;HPM_P1;HPM_P2
2021/01/09 00:00:19;;;;;;;20.98;9.88;;;-0.10;98.90;;;;;;5020079;28;20064;-80
2021/01/09 00:02:45;;;;;;;20.52;11.35;;;-0.10;98.90;;;;;;5036269;28;20033;-80
2021/01/09 00:05:12;;;;;;;21.33;12.20;;;-0.20;98.90;;;;;;5011222;28;20053;-80
2021/01/09 00:07:58;;;;;;;14.90;9.02;;;-0.20;98.90;;;;;;5029901;28;20496;-80
2021/01/09 00:10:24;;;;;;;21.30;9.48;;;-0.20;98.90;;;;;;5026681;28;20033;-80
2021/01/09 00:12:50;;;;;;;14.10;8.63;;;-0.30;98.80;;;;;;5015129;28;20065;-80
2021/01/09 00:15:15;;;;;;;15.10;8.60;;;-0.40;98.80;;;;;;5018142;28;20079;-80
2021/01/09 00:17:41;;;;;;;16.88;9.85;;;-0.40;98.80;;;;;;5046305;28;20041;-80
2021/01/09 00:20:11;;;;;;;15.73;8.40;;;-0.40;98.80;;;;;;5046234;28;20042;-80
2021/01/09 00:22:37;;;;;;;14.60;8.80;;;-0.40;98.80;;;;;;5037775;28;20501;-80
2021/01/09 00:25:09;;;;;;;15.77;8.45;;;-0.40;98.80;;;;;;5024582;28;20033;-80
2021/01/09 00:27:35;;;;;;;18.58;11.02;;;-0.40;98.80;;;;;;5022578;28;20046;-80
2021/01/09 00:30:03;;;;;;;22.95;12.27;;;-0.50;98.80;;;;;;5035879;28;20041;-80
2021/01/09 00:32:28;;;;;;;22.60;13.25;;;-0.50;98.80;;;;;;5019083;28;20073;-80
2021/01/09 00:34:54;;;;;;;19.75;11.13;;;-0.50;98.80;;;;;;5026500;28;20044;-80
2021/01/09 00:37:24;;;;;;;17.70;11.30;;;-0.40;98.90;;;;;;5041969;28;20045;-80
2021/01/09 00:39:50;;;;;;;13.98;9.48;;;-0.40;98.90;;;;;;5023932;28;20389;-80
2021/01/09 00:42:16;;;;;;;17.13;10.43;;;-0.40;98.80;;;;;;5039764;28;20045;-80
2021/01/09 00:44:42;;;;;;;12.57;7.88;;;-0.50;98.80;;;;;;5043148;28;20072;-80
2021/01/09 00:47:10;;;;;;;19.45;11.43;;;-0.50;98.80;;;;;;5043293;28;20057;-80
2021/01/09 00:49:36;;;;;;;17.23;10.52;;;-0.50;98.80;;;;;;5040522;28;20107;-80
2021/01/09 00:52:02;;;;;;;16.88;9.95;;;-0.40;98.90;;;;;;5036026;28;20034;-80
2021/01/09 00:54:28;;;;;;;18.92;9.60;;;-0.40;98.90;;;;;;5056291;28;20044;-80
2021/01/09 00:56:54;;;;;;;18.27;9.85;;;-0.30;98.90;;;;;;5044859;28;20041;-80
2021/01/09 00:59:20;;;;;;;18.48;10.55;;;-0.40;98.90;;;;;;5047159;28;20040;-80
2021/01/09 01:01:48;;;;;;;18.25;10.63;;;-0.40;98.80;;;;;;5042540;28;20080;-80
2021/01/09 01:04:14;;;;;;;18.98;10.52;;;-0.40;98.90;;;;;;5042226;28;20097;-80
2021/01/09 01:06:40;;;;;;;17.77;10.23;;;-0.40;98.90;;;;;;5048160;28;20111;-80
2021/01/09 01:09:06;;;;;;;15.73;9.30;;;-0.40;98.90;;;;;;5054153;28;20052;-80
2021/01/09 01:11:32;;;;;;;19.27;12.43;;;-0.30;99.00;;;;;;5066916;28;20120;-80
2021/01/09 01:13:58;;;;;;;21.77;12.23;;;-0.30;99.00;;;;;;5032758;28;20046;-79
2021/01/09 01:16:25;;;;;;;16.90;10.95;;;-0.30;99.10;;;;;;5046724;28;20465;-79
2021/01/09 01:18:52;;;;;;;22.80;12.02;;;-0.20;99.20;;;;;;5037261;28;20068;-80
2021/01/09 01:21:18;;;;;;;21.98;12.98;;;-0.10;99.30;;;;;;5039752;28;20119;-80
2021/01/09 01:23:44;;;;;;;24.83;13.50;;;-0.10;99.30;;;;;;5040746;28;20056;-80
2021/01/09 01:26:13;;;;;;;22.38;13.23;;;0.00;99.40;;;;;;5048174;28;20085;-80
2021/01/09 01:28:40;;;;;;;19.38;13.35;;;0.10;99.50;;;;;;5054226;28;20053;-80
2021/01/09 01:31:07;;;;;;;28.20;15.70;;;0.20;99.60;;;;;;5063008;28;20038;-80
2021/01/09 01:33:33;;;;;;;23.75;14.00;;;0.30;99.70;;;;;;5053648;28;20117;-80
2021/01/09 01:35:59;;;;;;;23.80;15.43;;;0.40;99.70;;;;;;5049756;28;20064;-80
2021/01/09 01:38:25;;;;;;;22.48;14.70;;;0.40;99.70;;;;;;5030146;28;20043;-80
2021/01/09 01:40:59;;;;;;;26.60;13.80;;;0.40;99.70;;;;;;5065901;28;20098;-80
2021/01/09 01:43:25;;;;;;;23.40;12.80;;;0.40;99.60;;;;;;5055234;28;20118;-80
2021/01/09 01:45:50;;;;;;;24.27;13.23;;;0.30;99.60;;;;;;5051485;28;20050;-80
2021/01/09 01:48:18;;;;;;;25.08;13.05;;;0.30;99.50;;;;;;5049023;28;20072;-81
2021/01/09 01:50:44;;;;;;;26.27;13.15;;;0.20;99.50;;;;;;5040643;28;20127;-80
2021/01/09 01:53:10;;;;;;;25.58;12.52;;;0.30;99.50;;;;;;5051815;28;20084;-80
2021/01/09 01:55:36;;;;;;;20.52;11.75;;;0.10;99.40;;;;;;5030613;28;20060;-80
2021/01/09 01:58:02;;;;;;;24.98;12.98;;;0.10;99.40;;;;;;5044870;28;20057;-80
2021/01/09 02:00:29;;;;;;;22.38;11.65;;;0.00;99.40;;;;;;5016493;28;20050;-80
2021/01/09 02:02:56;;;;;;;23.25;13.38;;;0.00;99.40;;;;;;5010550;28;20064;-80
2021/01/09 02:05:24;;;;;;;20.92;11.25;;;0.00;99.40;;;;;;5004491;28;20057;-80
2021/01/09 02:07:53;;;;;;;19.27;9.40;;;-0.10;99.30;;;;;;5002113;28;20068;-80
2021/01/09 02:10:22;;;;;;;18.40;9.40;;;-0.10;99.30;;;;;;5019067;28;20049;-80
2021/01/09 02:13:07;;;;;;;16.75;9.38;;;-0.20;99.30;;;;;;5024144;28;20041;-81
2021/01/09 02:15:34;;;;;;;16.90;8.65;;;-0.20;99.20;;;;;;5002475;28;20104;-80
2021/01/09 02:18:01;;;;;;;14.02;8.93;;;-0.30;99.20;;;;;;5029883;28;20666;-80
2021/01/09 02:20:29;;;;;;;17.33;9.50;;;-0.30;99.20;;;;;;4998912;28;20032;-80
2021/01/09 02:22:55;;;;;;;17.45;10.00;;;-0.40;99.20;;;;;;5016359;28;20037;-80
2021/01/09 02:25:21;;;;;;;17.73;9.02;;;-0.40;99.20;;;;;;5005519;28;20149;-80
2021/01/09 02:27:47;;;;;;;20.02;9.27;;;-0.50;99.40;;;;;;5011144;28;20050;-80
2021/01/09 02:30:15;;;;;;;17.85;10.63;;;-0.50;99.20;;;;;;5028266;28;20048;-80
2021/01/09 02:32:51;;;;;;;13.93;10.00;;;-0.50;99.20;;;;;;5010060;28;20047;-79
2021/01/09 02:35:20;;;;;;;13.35;8.32;;;-0.50;99.20;;;;;;5019299;28;20049;-80
2021/01/09 02:37:46;;;;;;;20.33;10.18;;;-0.50;99.20;;;;;;5004006;28;20061;-81
2021/01/09 02:40:17;;;;;;;15.93;9.43;;;-0.50;99.20;;;;;;5012455;28;20061;-80
2021/01/09 02:42:43;;;;;;;15.15;8.60;;;-0.60;99.20;;;;;;5006607;28;20038;-80
2021/01/09 02:45:09;;;;;;;16.50;9.55;;;-0.60;99.20;;;;;;5024763;28;20125;-80
2021/01/09 02:47:36;;;;;;;14.35;8.07;;;-0.70;99.10;;;;;;5018038;28;20084;-80
2021/01/09 02:50:03;;;;;;;18.15;8.88;;;-0.80;99.10;;;;;;5026553;28;20130;-80
2021/01/09 02:52:29;;;;;;;19.75;11.00;;;-0.80;99.10;;;;;;5008785;28;20109;-80
2021/01/09 02:54:55;;;;;;;23.40;11.73;;;-0.80;99.10;;;;;;5017712;28;20056;-80
2021/01/09 02:57:22;;;;;;;18.73;9.57;;;-0.90;99.10;;;;;;5015398;28;20046;-80
2021/01/09 02:59:48;;;;;;;18.08;9.60;;;-0.80;99.10;;;;;;5002869;28;20076;-80
2021/01/09 03:02:15;;;;;;;19.33;11.25;;;-0.90;99.10;;;;;;5022399;28;20065;-80
2021/01/09 03:04:41;;;;;;;15.18;7.90;;;-0.90;99.10;;;;;;5007613;28;20057;-80
2021/01/09 03:07:07;;;;;;;19.95;11.23;;;-0.90;99.10;;;;;;5017824;28;20054;-80
2021/01/09 03:09:33;;;;;;;12.13;8.10;;;-0.90;99.10;;;;;;5007671;28;20510;-80
2021/01/09 03:12:04;;;;;;;18.67;10.05;;;-0.90;99.10;;;;;;5020834;28;20069;-80
2021/01/09 03:14:30;;;;;;;18.45;9.75;;;-1.00;99.10;;;;;;5023412;28;20073;-80
2021/01/09 03:16:56;;;;;;;16.98;9.25;;;-1.00;99.10;;;;;;5007409;28;20520;-80
2021/01/09 03:19:22;;;;;;;17.90;10.05;;;-1.00;99.10;;;;;;4998377;28;20041;-80
2021/01/09 03:21:49;;;;;;;16.63;10.25;;;-1.00;99.10;;;;;;5022899;28;20041;-81
2021/01/09 03:24:15;;;;;;;17.35;10.15;;;-1.10;99.10;;;;;;5012516;28;20061;-80
2021/01/09 03:26:41;;;;;;;17.38;9.20;;;-1.00;99.10;;;;;;5024191;28;20081;-81
2021/01/09 03:29:07;;;;;;;22.85;12.10;;;-1.10;99.10;;;;;;5006703;28;20073;-81
2021/01/09 03:31:33;;;;;;;25.42;12.85;;;-1.00;99.10;;;;;;5021737;28;20038;-81
2021/01/09 03:33:58;;;;;;;21.73;10.73;;;-1.10;99.10;;;;;;5006572;28;20061;-80
2021/01/09 03:36:24;;;;;;;29.38;11.85;;;-1.10;99.10;;;;;;5008111;28;20048;-82
2021/01/09 03:38:50;;;;;;;156.95;23.55;;;-1.10;99.10;;;;;;5001373;28;20053;-85
2021/01/09 03:41:16;;;;;;;215.45;19.23;;;-1.00;99.20;;;;;;5001056;28;20042;-85
2021/01/09 03:43:42;;;;;;;149.27;18.63;;;-1.00;99.20;;;;;;5021619;28;20657;-81
2021/01/09 03:46:09;;;;;;;140.45;15.30;;;-1.00;99.20;;;;;;4989319;28;20065;-82
2021/01/09 03:48:34;;;;;;;100.82;12.85;;;-1.00;99.20;;;;;;5005986;28;20095;-81
2021/01/09 03:51:01;;;;;;;123.95;14.07;;;-1.00;99.20;;;;;;5011629;28;20057;-82
2021/01/09 03:53:26;;;;;;;109.65;15.05;;;-1.00;99.30;;;;;;5012910;28;20120;-81
2021/01/09 03:55:52;;;;;;;111.75;15.00;;;-1.10;99.20;;;;;;5007447;28;20055;-82
2021/01/09 03:58:18;;;;;;;185.15;33.58;;;-1.10;99.30;;;;;;5014622;28;20046;-81
2021/01/09 04:00:44;;;;;;;88.70;14.95;;;-1.10;99.30;;;;;;5018476;28;20050;-82
2021/01/09 04:03:09;;;;;;;63.08;13.40;;;-1.00;99.30;;;;;;5060225;28;20050;-82
2021/01/09 04:05:35;;;;;;;53.03;15.23;;;-1.00;99.30;;;;;;5045094;28;20021;-81
2021/01/09 04:08:01;;;;;;;28.50;12.93;;;-1.00;99.70;;;;;;5036508;28;20034;-81
2021/01/09 04:10:27;;;;;;;27.33;14.10;;;-1.00;99.40;;;;;;5048068;28;20064;-81
2021/01/09 04:12:53;;;;;;;27.48;14.82;;;-0.90;99.50;;;;;;5065662;28;20033;-82
2021/01/09 04:15:19;;;;;;;25.98;13.88;;;-0.80;99.60;;;;;;5063472;28;20152;-81
2021/01/09 04:17:44;;;;;;;22.90;13.13;;;-0.80;99.60;;;;;;5063525;28;20028;-81
2021/01/09 04:20:10;;;;;;;25.45;14.82;;;-0.80;99.60;;;;;;5030159;28;20048;-81
2021/01/09 04:22:36;;;;;;;25.48;15.20;;;-0.80;99.60;;;;;;5071763;28;20048;-81
2021/01/09 04:25:03;;;;;;;23.23;13.65;;;-0.70;99.70;;;;;;5049455;28;20614;-82
2021/01/09 04:27:29;;;;;;;22.02;14.10;;;-0.60;99.70;;;;;;5066852;28;20040;-81
2021/01/09 04:29:54;;;;;;;23.05;14.82;;;-0.60;99.70;;;;;;5063035;28;20044;-81
2021/01/09 04:32:20;;;;;;;22.70;14.93;;;-0.50;99.80;;;;;;5066097;28;20071;-81
2021/01/09 04:34:47;;;;;;;25.02;14.77;;;-0.60;99.80;;;;;;5050838;28;20040;-81
2021/01/09 04:37:14;;;;;;;20.40;15.25;;;-0.50;99.80;;;;;;5047827;28;20033;-83
2021/01/09 04:39:40;;;;;;;19.40;13.38;;;-0.50;99.80;;;;;;5070617;28;20372;-81
2021/01/09 04:42:06;;;;;;;17.77;13.93;;;-0.50;99.80;;;;;;5061248;28;20042;-81
2021/01/09 04:44:32;;;;;;;17.80;12.20;;;-0.40;99.80;;;;;;5061689;28;20071;-81
2021/01/09 04:47:01;;;;;;;18.33;13.50;;;-0.40;99.90;;;;;;5058431;28;20417;-81
2021/01/09 04:49:28;;;;;;;19.70;13.73;;;-0.40;99.90;;;;;;5066583;28;20041;-81
2021/01/09 04:51:56;;;;;;;23.30;13.00;;;-0.40;99.80;;;;;;5037892;28;20065;-81
2021/01/09 04:54:24;;;;;;;19.38;13.48;;;-0.40;99.90;;;;;;5050623;28;20047;-81
2021/01/09 04:56:54;;;;;;;20.15;14.32;;;-0.30;99.90;;;;;;5039236;28;20090;-81
2021/01/09 04:59:22;;;;;;;20.63;13.40;;;-0.30;99.90;;;;;;5064130;28;20144;-81
2021/01/09 05:01:49;;;;;;;20.52;12.77;;;-0.30;99.90;;;;;;5058735;28;20292;-81
2021/01/09 05:04:16;;;;;;;22.17;15.20;;;-0.20;99.90;;;;;;5050886;28;20181;-81
2021/01/09 05:06:43;;;;;;;22.95;15.93;;;-0.20;99.90;;;;;;5044431;28;20349;-81
2021/01/09 05:09:11;;;;;;;22.45;14.73;;;-0.20;99.90;;;;;;5048931;28;20077;-81
2021/01/09 05:11:42;;;;;;;18.33;13.90;;;-0.20;99.90;;;;;;5052449;28;20048;-81
2021/01/09 05:14:08;;;;;;;24.40;13.45;;;-0.10;99.90;;;;;;5044933;28;20084;-81
2021/01/09 05:16:35;;;;;;;20.60;14.20;;;-0.10;99.90;;;;;;5065706;28;20072;-81
2021/01/09 05:19:03;;;;;;;22.17;15.15;;;-0.10;99.90;;;;;;5059162;28;20052;-81
2021/01/09 05:21:32;;;;;;;18.80;13.93;;;0.00;99.90;;;;;;5074580;28;20039;-82
2021/01/09 05:24:12;;;;;;;20.58;13.68;;;0.00;99.90;;;;;;5062135;28;20068;-82
2021/01/09 05:26:39;;;;;;;19.42;13.43;;;0.00;99.90;;;;;;5068170;28;20055;-81
2021/01/09 05:29:06;;;;;;;29.17;15.90;;;0.10;99.90;;;;;;5046764;28;20052;-82
2021/01/09 05:31:36;;;;;;;20.90;14.07;;;0.10;99.90;;;;;;5052506;28;20083;-81
2021/01/09 05:34:03;;;;;;;23.08;13.32;;;0.10;99.90;;;;;;5065612;28;20079;-81
2021/01/09 05:36:29;;;;;;;22.63;14.32;;;0.20;99.90;;;;;;5067167;28;20121;-82
2021/01/09 05:38:55;;;;;;;26.15;14.48;;;0.20;99.90;;;;;;5050509;28;20056;-81
2021/01/09 05:41:23;;;;;;;28.83;17.03;;;0.20;99.90;;;;;;5054645;28;20118;-81
2021/01/09 05:44:02;;;;;;;21.85;14.23;;;0.30;99.90;;;;;;5042282;28;20080;-81
2021/01/09 05:46:30;;;;;;;26.70;15.70;;;0.30;99.90;;;;;;5061706;28;20029;-81
2021/01/09 05:48:58;;;;;;;20.17;13.38;;;0.40;99.90;;;;;;5044114;28;20065;-81
2021/01/09 05:51:25;;;;;;;25.77;16.20;;;0.40;99.90;;;;;;5066445;28;20047;-81
2021/01/09 05:53:53;;;;;;;27.88;14.93;;;0.40;99.90;;;;;;5049628;28;20059;-81
2021/01/09 05:56:21;;;;;;;26.08;15.85;;;0.40;99.90;;;;;;5071775;28;20430;-81
2021/01/09 05:58:49;;;;;;;26.13;14.20;;;0.40;99.90;;;;;;5042701;28;20056;-81
2021/01/09 06:01:19;;;;;;;21.35;13.45;;;0.50;99.90;;;;;;5038617;28;20780;-81
2021/01/09 06:03:51;;;;;;;25.45;15.23;;;0.40;99.90;;;;;;5036963;28;20116;-82
2021/01/09 06:06:45;;;;;;;24.50;16.25;;;0.50;99.90;;;;;;5050360;28;20037;-81
2021/01/09 06:09:17;;;;;;;20.02;13.55;;;0.50;99.90;;;;;;5049715;28;20051;-81
2021/01/09 06:11:43;;;;;;;27.02;14.55;;;0.60;99.90;;;;;;5050553;28;20072;-81
2021/01/09 06:14:24;;;;;;;19.48;13.43;;;0.60;99.90;;;;;;5044318;28;20068;-81
2021/01/09 06:16:51;;;;;;;20.88;12.63;;;0.60;99.90;;;;;;5043166;28;20037;-81
2021/01/09 06:19:21;;;;;;;19.45;11.95;;;0.50;99.90;;;;;;5049584;28;20051;-81
2021/01/09 06:21:47;;;;;;;27.65;14.90;;;0.60;99.90;;;;;;5049646;28;20047;-81
2021/01/09 06:24:13;;;;;;;24.27;13.55;;;0.60;99.90;;;;;;5049439;28;20048;-81
2021/01/09 06:26:40;;;;;;;26.00;14.75;;;0.50;99.90;;;;;;5060438;28;20067;-81
2021/01/09 06:29:19;;;;;;;32.75;16.27;;;0.60;99.90;;;;;;5051963;28;20033;-81
2021/01/09 06:31:59;;;;;;;35.35;16.73;;;0.60;99.90;;;;;;5045774;28;20399;-81
2021/01/09 06:34:27;;;;;;;30.23;15.63;;;0.60;99.90;;;;;;5066070;28;20037;-81
2021/01/09 06:36:58;;;;;;;29.67;15.60;;;0.60;99.90;;;;;;5051773;28;20044;-81
2021/01/09 06:39:26;;;;;;;31.45;16.25;;;0.60;99.90;;;;;;5067224;28;20041;-81
2021/01/09 06:41:55;;;;;;;32.25;14.60;;;0.60;99.90;;;;;;5050968;28;20046;-81
2021/01/09 06:44:22;;;;;;;26.10;13.70;;;0.60;99.90;;;;;;5064259;28;20120;-81
2021/01/09 06:46:50;;;;;;;16.25;10.90;;;0.60;99.90;;;;;;5044645;28;20045;-81
2021/01/09 06:49:21;;;;;;;17.92;10.32;;;0.60;99.90;;;;;;5047499;28;20112;-81
2021/01/09 06:51:53;;;;;;;26.70;12.65;;;0.70;99.90;;;;;;5058871;28;20037;-81
2021/01/09 06:54:25;;;;;;;20.73;12.77;;;0.70;99.90;;;;;;5067216;28;20689;-81
2021/01/09 06:57:10;;;;;;;26.90;12.38;;;0.70;99.90;;;;;;5046406;28;20152;-80
2021/01/09 06:59:38;;;;;;;24.90;13.13;;;0.70;99.90;;;;;;5043030;28;20107;-80
2021/01/09 07:02:12;;;;;;;23.27;13.70;;;0.70;99.90;;;;;;5054325;28;20445;-81
2021/01/09 07:04:54;;;;;;;29.73;14.00;;;0.70;99.90;;;;;;5055409;28;20044;-81
2021/01/09 07:07:34;;;;;;;24.52;13.43;;;0.70;99.90;;;;;;5048576;28;20136;-81
2021/01/09 07:10:20;;;;;;;23.48;12.50;;;0.80;99.90;;;;;;5065395;28;20048;-81
2021/01/09 07:12:58;;;;;;;23.67;13.27;;;0.70;99.90;;;;;;5051993;28;20061;-81
2021/01/09 07:15:26;;;;;;;23.15;12.70;;;0.70;99.90;;;;;;5059565;28;20076;-81
2021/01/09 07:17:55;;;;;;;20.83;11.93;;;0.70;99.90;;;;;;5030437;28;20053;-81
2021/01/09 07:20:23;;;;;;;23.02;13.73;;;0.80;99.90;;;;;;5069219;28;20032;-81
2021/01/09 07:22:56;;;;;;;22.83;12.57;;;0.80;99.90;;;;;;5049430;28;20041;-81
2021/01/09 07:25:37;;;;;;;18.95;12.30;;;0.80;99.90;;;;;;5071325;28;20514;-81
2021/01/09 07:28:15;;;;;;;24.35;14.38;;;0.80;99.90;;;;;;5050462;28;20063;-81
2021/01/09 07:30:42;;;;;;;29.00;14.30;;;0.80;99.90;;;;;;5063116;28;20067;-81
2021/01/09 07:33:10;;;;;;;23.55;12.88;;;0.60;99.90;;;;;;5028954;28;20037;-81
2021/01/09 07:35:39;;;;;;;23.42;12.77;;;0.60;99.90;;;;;;5071478;28;20503;-81
2021/01/09 07:38:06;;;;;;;19.95;11.63;;;0.50;99.90;;;;;;5051837;28;20120;-82
2021/01/09 07:40:56;;;;;;;35.55;15.00;;;0.50;99.90;;;;;;5051802;28;20186;-82
2021/01/09 07:43:42;;;;;;;33.22;15.30;;;0.50;99.90;;;;;;5062832;28;20135;-81
2021/01/09 07:46:27;;;;;;;30.30;15.07;;;0.40;99.90;;;;;;5068529;28;20048;-80
2021/01/09 07:48:54;;;;;;;;;;;0.40;99.90;;;;;;5041635;28;20049;-80
2021/01/09 07:51:47;;;;;;;26.95;14.90;;;0.30;99.90;;;;;;5054329;28;19916;-81
2021/01/09 07:54:39;;;;;;;27.33;14.05;;;0.20;99.90;;;;;;5050157;28;20101;-82
2021/01/09 07:57:17;;;;;;;26.65;16.38;;;0.30;99.90;;;;;;5063275;28;20047;-81
2021/01/09 08:00:01;;;;;;;29.30;15.30;;;0.20;99.90;;;;;;5037497;28;20028;-81
2021/01/09 08:02:37;;;;;;;30.98;15.70;;;0.10;99.90;;;;;;5024858;28;20061;-81
2021/01/09 08:05:20;;;;;;;32.92;17.38;;;0.10;99.90;;;;;;5021840;28;20038;-81
2021/01/09 08:07:57;;;;;;;31.05;15.55;;;0.10;99.90;;;;;;5020093;28;20755;-81
2021/01/09 08:10:24;;;;;;;20.70;12.82;;;0.10;99.90;;;;;;5023671;28;20046;-81
2021/01/09 08:13:08;;;;;;;26.55;13.75;;;0.10;99.90;;;;;;4996885;28;20104;-81
2021/01/09 08:15:35;;;;;;;33.25;15.05;;;0.20;99.90;;;;;;4996679;28;20077;-81
2021/01/09 08:18:05;;;;;;;30.52;13.98;;;0.10;99.90;;;;;;4981099;28;20058;-81
2021/01/09 08:20:32;;;;;;;25.75;14.60;;;0.10;99.90;;;;;;4995814;28;20058;-81
2021/01/09 08:23:04;;;;;;;31.25;16.35;;;0.10;99.90;;;;;;4994303;28;20156;-81
2021/01/09 08:25:35;;;;;;;30.10;16.00;;;0.20;99.90;;;;;;5001071;28;20054;-82
2021/01/09 08:28:05;;;;;;;26.77;14.70;;;0.20;99.90;;;;;;5003821;28;20086;-81
2021/01/09 08:30:39;;;;;;;26.55;16.23;;;0.20;99.90;;;;;;4989778;28;20049;-81
2021/01/09 08:33:18;;;;;;;30.00;15.43;;;0.30;99.90;;;;;;4978897;28;20232;-81
2021/01/09 08:35:49;;;;;;;26.88;15.05;;;0.20;99.90;;;;;;4989575;28;20082;-82
2021/01/09 08:38:31;;;;;;;27.98;15.50;;;0.30;99.90;;;;;;4999288;28;20060;-81
2021/01/09 08:40:57;;;;;;;34.05;17.70;;;0.20;99.90;;;;;;5009403;28;20174;-81
2021/01/09 08:43:24;;;;;;;31.58;15.73;;;0.30;99.90;;;;;;5004777;28;20541;-81
2021/01/09 08:45:54;;;;;;;35.58;17.17;;;0.20;99.90;;;;;;5011469;28;20049;-82
2021/01/09 08:48:28;;;;;;;30.58;16.83;;;0.30;99.90;;;;;;5028546;28;20033;-81
2021/01/09 08:51:12;;;;;;;26.83;15.15;;;0.40;99.90;;;;;;5012129;28;20046;-81
2021/01/09 08:53:45;;;;;;;36.33;15.40;;;0.40;99.90;;;;;;5030653;28;20042;-81
2021/01/09 08:56:13;;;;;;;38.55;15.50;;;0.50;99.90;;;;;;5020113;28;20037;-81
2021/01/09 08:58:40;;;;;;;35.38;14.48;;;0.50;99.90;;;;;;5011289;28;20046;-82
2021/01/09 09:01:07;;;;;;;36.90;15.45;;;0.60;99.90;;;;;;5023352;28;20073;-81
2021/01/09 09:03:36;;;;;;;25.95;13.38;;;0.70;99.90;;;;;;5027743;28;20096;-80
2021/01/09 09:06:07;;;;;;;27.95;13.38;;;0.70;99.90;;;;;;5019093;28;20065;-80
2021/01/09 09:08:35;;;;;;;32.58;16.60;;;0.80;99.90;;;;;;5005982;28;20432;-80
2021/01/09 09:11:02;;;;;;;37.40;14.25;;;0.80;99.90;;;;;;5005628;28;20038;-80
2021/01/09 09:13:28;;;;;;;25.88;12.55;;;0.90;99.90;;;;;;5004330;28;20062;-81
2021/01/09 09:15:54;;;;;;;25.17;11.00;;;0.90;99.90;;;;;;5026479;28;20094;-81
2021/01/09 09:18:20;;;;;;;34.75;16.58;;;1.00;99.90;;;;;;5020522;28;20717;-81
2021/01/09 09:20:55;;;;;;;27.02;12.70;;;1.00;99.90;;;;;;5006132;28;20030;-80
2021/01/09 09:23:22;;;;;;;;;;;1.00;99.90;;;;;;5001320;28;20125;-80
2021/01/09 09:26:09;;;;;;;27.15;11.13;;;1.00;99.90;;;;;;5026996;28;19944;-81
2021/01/09 09:28:49;;;;;;;31.10;14.05;;;1.10;99.90;;;;;;5028940;28;20045;-81
2021/01/09 09:31:19;;;;;;;29.33;11.88;;;1.10;99.90;;;;;;5012556;28;20078;-81
2021/01/09 09:34:06;;;;;;;22.05;11.07;;;1.20;99.90;;;;;;5011052;28;20052;-84
2021/01/09 09:36:47;;;;;;;13.85;8.38;;;1.20;99.90;;;;;;5032230;28;20191;-83
2021/01/09 09:39:25;;;;;;;26.25;11.20;;;1.30;99.90;;;;;;5017843;28;20581;-82
2021/01/09 09:41:58;;;;;;;23.52;11.27;;;1.40;99.90;;;;;;5028323;28;20072;-82
2021/01/09 09:44:41;;;;;;;25.95;10.70;;;1.40;99.90;;;;;;4996292;28;20058;-83
2021/01/09 09:47:25;;;;;;;27.70;13.70;;;1.40;99.90;;;;;;5002481;28;20394;-81
2021/01/09 09:49:51;;;;;;;12.98;7.45;;;1.40;99.90;;;;;;5029119;28;20038;-83
2021/01/09 09:52:18;;;;;;;19.10;7.70;;;1.50;99.90;;;;;;5026375;28;20056;-83
2021/01/09 09:54:44;;;;;;;27.38;13.40;;;1.50;99.90;;;;;;5007206;28;20661;-81
2021/01/09 09:57:36;;;;;;;26.73;11.98;;;1.60;99.90;;;;;;5024330;28;20074;-82
2021/01/09 10:00:15;;;;;;;33.40;14.27;;;1.70;99.90;;;;;;5006755;28;20081;-81
2021/01/09 10:02:56;;;;;;;31.42;13.57;;;1.70;99.90;;;;;;5041763;28;20060;-83
2021/01/09 10:05:25;;;;;;;32.63;12.93;;;1.70;99.90;;;;;;5026261;28;20423;-85
2021/01/09 10:08:15;;;;;;;28.23;12.52;;;1.80;99.90;;;;;;5054128;28;20552;-86
2021/01/09 10:10:50;;;;;;;23.15;11.05;;;1.80;99.90;;;;;;5050714;28;20041;-83
2021/01/09 10:13:28;;;;;;;13.40;7.13;;;1.90;99.90;;;;;;5053542;28;20436;-83
2021/01/09 10:15:56;;;;;;;18.60;9.90;;;1.90;99.90;;;;;;5048048;28;20048;-83
2021/01/09 10:18:22;;;;;;;27.80;13.60;;;2.00;99.90;;;;;;5037924;28;20087;-82
2021/01/09 10:20:51;;;;;;;22.92;10.77;;;2.00;99.90;;;;;;5040221;28;20040;-85
2021/01/09 10:23:17;;;;;;;12.15;6.05;;;2.00;99.90;;;;;;5059871;28;20056;-83
2021/01/09 10:25:43;;;;;;;17.55;7.75;;;2.20;99.90;;;;;;5048608;28;20080;-82
2021/01/09 10:28:09;;;;;;;9.93;5.65;;;2.10;99.90;;;;;;5053038;28;20060;-82
2021/01/09 10:30:35;;;;;;;22.45;9.73;;;2.10;99.90;;;;;;5057389;28;20106;-82
2021/01/09 10:33:02;;;;;;;26.38;12.43;;;2.10;99.90;;;;;;5050084;28;20068;-82
2021/01/09 10:35:29;;;;;;;15.40;8.80;;;2.10;99.90;;;;;;5044934;28;20052;-83
2021/01/09 10:37:55;;;;;;;19.08;8.70;;;2.20;99.90;;;;;;5063772;28;20056;-83
2021/01/09 10:40:21;;;;;;;22.83;10.02;;;2.20;99.90;;;;;;5051370;28;20420;-82
2021/01/09 10:42:47;;;;;;;14.57;8.10;;;2.20;99.90;;;;;;5053403;28;20048;-85
2021/01/09 10:45:37;;;;;;;25.02;11.88;;;2.10;99.90;;;;;;5021316;28;20057;-84
2021/01/09 10:48:41;;;;;;;20.33;11.25;;;2.20;99.90;;;;;;5055144;28;20057;-86
2021/01/09 10:51:32;;;;;;;29.42;12.60;;;2.20;99.90;;;;;;5051041;28;20463;-86
2021/01/09 10:54:04;;;;;;;22.33;12.23;;;2.20;99.90;;;;;;5053865;28;20048;-84
2021/01/09 10:56:31;;;;;;;18.83;9.57;;;2.30;99.90;;;;;;5041220;28;20076;-83
2021/01/09 10:58:57;;;;;;;23.92;10.20;;;2.30;99.90;;;;;;5061764;28;20039;-84
2021/01/09 11:01:24;;;;;;;17.27;10.63;;;2.30;99.90;;;;;;5048760;28;20052;-85
2021/01/09 11:03:50;;;;;;;23.38;11.50;;;2.30;99.90;;;;;;5075347;28;20090;-83
2021/01/09 11:06:21;;;;;;;30.23;13.10;;;2.30;99.90;;;;;;5066310;28;20044;-82
2021/01/09 11:08:46;;;;;;;16.42;6.43;;;2.40;99.90;;;;;;5051399;28;20064;-82
2021/01/09 11:11:12;;;;;;;15.57;8.05;;;2.40;99.90;;;;;;5059237;28;20033;-82
2021/01/09 11:13:38;;;;;;;13.27;7.70;;;2.40;99.90;;;;;;5055029;28;20040;-83
2021/01/09 11:16:04;;;;;;;13.35;7.72;;;2.50;99.90;;;;;;5046010;28;20105;-82
2021/01/09 11:18:30;;;;;;;16.95;9.77;;;2.60;99.90;;;;;;5072193;28;20725;-82
2021/01/09 11:20:56;;;;;;;14.25;7.60;;;2.70;99.90;;;;;;5060386;28;20118;-83
2021/01/09 11:23:22;;;;;;;22.88;11.18;;;2.70;99.90;;;;;;5064184;28;20524;-82
2021/01/09 11:25:48;;;;;;;16.25;9.25;;;2.90;99.90;;;;;;5054634;28;20040;-83
2021/01/09 11:28:15;;;;;;;13.43;7.88;;;3.00;99.90;;;;;;5066012;28;20037;-83
2021/01/09 11:30:43;;;;;;;15.60;7.97;;;3.10;99.90;;;;;;5045037;28;20056;-82
2021/01/09 11:33:09;;;;;;;10.75;6.80;;;3.10;99.90;;;;;;5065410;28;20048;-82
2021/01/09 11:35:37;;;;;;;9.88;5.32;;;3.20;99.90;;;;;;5052559;28;20037;-83
2021/01/09 11:38:03;;;;;;;12.30;6.57;;;3.30;99.90;;;;;;5053573;28;20044;-82
2021/01/09 11:40:28;;;;;;;10.10;6.05;;;3.30;99.90;;;;;;5051683;28;20469;-82
2021/01/09 11:42:54;;;;;;;8.20;4.32;;;3.40;99.90;;;;;;5064419;28;20465;-82
2021/01/09 11:45:21;;;;;;;11.85;6.70;;;3.60;99.90;;;;;;5065120;28;20342;-82
2021/01/09 11:47:47;;;;;;;11.40;6.07;;;3.70;99.90;;;;;;5049153;28;20161;-83
2021/01/09 11:50:13;;;;;;;11.70;6.30;;;3.70;99.90;;;;;;5069265;28;20037;-82
2021/01/09 11:52:39;;;;;;;10.68;6.18;;;3.80;99.90;;;;;;5051080;28;20055;-82
2021/01/09 11:55:06;;;;;;;13.20;7.30;;;3.80;99.90;;;;;;5058674;28;20226;-83
2021/01/09 11:57:32;;;;;;;16.00;8.63;;;3.90;99.90;;;;;;5064200;28;20149;-83
2021/01/09 11:59:58;;;;;;;10.10;6.63;;;3.90;99.90;;;;;;5029657;28;20141;-83
2021/01/09 12:02:24;;;;;;;13.15;3.80;;;4.00;99.90;;;;;;5048600;28;20071;-83
2021/01/09 12:04:50;;;;;;;7.63;3.25;;;4.00;99.90;;;;;;5070314;28;20115;-82
2021/01/09 12:07:16;;;;;;;6.90;2.45;;;4.10;99.90;;;;;;5039111;28;20051;-82
2021/01/09 12:09:42;;;;;;;6.38;2.30;;;4.10;99.90;;;;;;5046233;28;20109;-82
2021/01/09 12:12:08;;;;;;;9.18;2.55;;;4.10;99.90;;;;;;5068987;28;20466;-83
2021/01/09 12:14:34;;;;;;;3.50;1.92;;;4.10;99.90;;;;;;5046828;28;20186;-82
2021/01/09 12:17:03;;;;;;;7.15;2.20;;;4.10;99.90;;;;;;5048325;28;20075;-82
2021/01/09 12:19:28;;;;;;;8.50;2.20;;;4.20;99.90;;;;;;5064469;28;20467;-83
2021/01/09 12:21:55;;;;;;;8.10;2.28;;;4.30;99.90;;;;;;5051939;28;20052;-82
2021/01/09 12:24:21;;;;;;;7.93;2.50;;;4.40;99.90;;;;;;5039438;28;20075;-83
2021/01/09 12:26:54;;;;;;;4.30;1.38;;;4.50;99.90;;;;;;5050890;28;20449;-82
2021/01/09 12:29:21;;;;;;;5.65;1.55;;;4.60;99.90;;;;;;5040610;28;20041;-85
2021/01/09 12:31:53;;;;;;;7.93;1.65;;;4.60;99.20;;;;;;5058785;28;20048;-83
2021/01/09 12:34:19;;;;;;;13.35;3.80;;;4.80;99.50;;;;;;5051524;28;20040;-83
2021/01/09 12:36:49;;;;;;;4.93;1.40;;;4.80;99.20;;;;;;5051971;28;20060;-83
2021/01/09 12:39:15;;;;;;;5.18;1.98;;;4.80;99.00;;;;;;5058398;28;20044;-83
2021/01/09 12:41:41;;;;;;;8.30;1.35;;;5.00;98.90;;;;;;5059576;28;20045;-83
2021/01/09 12:44:08;;;;;;;6.80;1.10;;;5.00;98.80;;;;;;5044517;28;20044;-84
2021/01/09 12:46:45;;;;;;;5.47;1.00;;;5.00;99.00;;;;;;5052085;28;20044;-84
2021/01/09 12:49:11;;;;;;;4.47;1.13;;;5.10;99.20;;;;;;5036730;28;20036;-84